createdAt,value
2018-09-03T00:02:20.611Z,101522.61
2018-09-03T00:04:50.488Z,101515.58
2018-09-03T00:07:20.918Z,101519.36
2018-09-03T00:09:50.264Z,101509.75
2018-09-03T00:12:20.090Z,101502.21
2018-09-03T00:14:52.224Z,101494.59
2018-09-03T00:17:22.466Z,101491.14
2018-09-03T00:19:52.427Z,101490.86
2018-09-03T00:22:26.668Z,101483.94
2018-09-03T00:24:58.159Z,101484.71
2018-09-03T00:27:32.831Z,101479.19
2018-09-03T00:30:05.714Z,101479.02
2018-09-03T00:32:41.571Z,101482.64
2018-09-03T00:35:15.901Z,101477.77
2018-09-03T00:37:52.454Z,101466.72
2018-09-03T00:40:27.763Z,101464.06
2018-09-03T00:43:07.235Z,101462.38
2018-09-03T00:45:43.775Z,101454.64
2018-09-03T00:48:13.415Z,101447.81
2018-09-03T00:50:43.464Z,101451.27
2018-09-03T00:53:12.712Z,101453.06
2018-09-03T00:55:43.917Z,101452.52
2018-09-03T00:58:15.209Z,101454.54
2018-09-03T01:03:26.977Z,101450.20
2018-09-03T01:05:56.580Z,101450.20
2018-09-03T01:08:33.411Z,101446.70
2018-09-03T01:11:04.085Z,101443.33
2018-09-03T01:13:34.404Z,101450.20
2018-09-03T01:16:05.283Z,101444.22
2018-09-03T01:18:43.737Z,101452.04
2018-09-03T01:21:13.606Z,101448.77
2018-09-03T01:23:43.856Z,101451.42
2018-09-03T01:26:13.753Z,101456.38
2018-09-03T01:28:45.185Z,101447.67
2018-09-03T01:31:19.326Z,101458.09
2018-09-03T01:33:51.229Z,101454.13
2018-09-03T01:36:23.471Z,101452.91
2018-09-03T01:38:53.520Z,101454.37
2018-09-03T01:41:23.361Z,101453.91
2018-09-03T01:43:54.405Z,101450.93
2018-09-03T01:46:27.757Z,101450.87
2018-09-03T01:48:59.621Z,101450.66
2018-09-03T01:51:29.036Z,101454.64
2018-09-03T01:53:58.402Z,101457.47
2018-09-03T01:56:30.849Z,101444.38
2018-09-03T01:59:01.635Z,101444.66
2018-09-03T02:01:34.217Z,101449.28
2018-09-03T02:04:05.854Z,101453.85
2018-09-03T02:06:39.116Z,101450.19
2018-09-03T02:09:11.107Z,101462.12
2018-09-03T02:11:42.242Z,101471.27
2018-09-03T02:14:12.163Z,101467.84
2018-09-03T02:16:41.597Z,101471.00
2018-09-03T02:19:12.341Z,101470.73
2018-09-03T02:21:42.261Z,101479.42
2018-09-03T02:24:11.943Z,101485.55
2018-09-03T02:26:42.030Z,101487.27
2018-09-03T02:29:11.288Z,101492.66
2018-09-03T02:31:41.639Z,101493.34
2018-09-03T02:34:11.974Z,101497.18
2018-09-03T02:36:41.906Z,101489.44
2018-09-03T02:39:12.661Z,101476.25
2018-09-03T02:41:43.270Z,101468.80
2018-09-03T02:44:12.762Z,101465.47
2018-09-03T02:46:42.459Z,101461.64
2018-09-03T02:49:12.524Z,101448.49
2018-09-03T02:51:48.785Z,101443.50
2018-09-03T02:54:20.317Z,101442.33
2018-09-03T02:56:49.791Z,101449.70
2018-09-03T02:59:25.176Z,101462.17
2018-09-03T03:01:58.899Z,101460.42
2018-09-03T03:04:31.280Z,101457.31
2018-09-03T03:07:02.668Z,101464.03
2018-09-03T03:09:32.965Z,101465.23
2018-09-03T03:12:02.777Z,101458.88
2018-09-03T03:14:32.713Z,101442.50
2018-09-03T03:17:04.233Z,101426.55
2018-09-03T03:19:34.093Z,101430.08
2018-09-03T03:22:04.372Z,101427.78
2018-09-03T03:24:33.947Z,101419.94
2018-09-03T03:27:03.846Z,101417.42
2018-09-03T03:29:33.665Z,101419.48
2018-09-03T03:32:03.936Z,101416.98
2018-09-03T03:34:33.352Z,101413.99
2018-09-03T03:37:02.789Z,101407.17
2018-09-03T03:39:32.935Z,101412.09
2018-09-03T03:42:02.710Z,101405.23
2018-09-03T03:44:31.960Z,101398.05
2018-09-03T03:47:01.478Z,101396.95
2018-09-03T03:52:13.240Z,101398.52
2018-09-03T03:54:42.412Z,101402.19
2018-09-03T03:57:12.331Z,101401.61
2018-09-03T03:59:42.194Z,101389.48
2018-09-03T04:02:12.332Z,101393.95
2018-09-03T04:04:42.921Z,101392.63
2018-09-03T04:07:13.257Z,101389.48
2018-09-03T04:09:42.764Z,101400.14
2018-09-03T04:12:12.643Z,101391.94
2018-09-03T04:14:42.188Z,101379.39
2018-09-03T04:17:11.782Z,101383.98
2018-09-03T04:19:41.357Z,101387.86
2018-09-03T04:22:15.787Z,101385.81
2018-09-03T04:24:45.377Z,101382.44
2018-09-03T04:27:15.133Z,101381.66
2018-09-03T04:29:44.528Z,101387.59
2018-09-03T04:32:15.226Z,101393.00
2018-09-03T04:34:45.793Z,101395.53
2018-09-03T04:37:15.804Z,101397.00
2018-09-03T04:39:45.362Z,101395.73
2018-09-03T04:42:15.545Z,101395.77
2018-09-03T04:44:45.013Z,101386.94
2018-09-03T04:47:14.635Z,101379.05
2018-09-03T04:49:44.923Z,101371.59
2018-09-03T04:52:25.864Z,101376.11
2018-09-03T04:54:56.042Z,101379.98
2018-09-03T04:57:27.467Z,101380.35
2018-09-03T04:59:56.936Z,101374.75
2018-09-03T05:02:26.430Z,101381.85
2018-09-03T05:04:56.000Z,101377.13
2018-09-03T05:07:27.921Z,101378.50
2018-09-03T05:10:01.795Z,101383.15
2018-09-03T05:12:36.763Z,101382.27
2018-09-03T05:15:07.920Z,101379.67
2018-09-03T05:17:39.906Z,101382.87
2018-09-03T05:20:09.517Z,101387.20
2018-09-03T05:22:39.005Z,101345.70
2018-09-03T05:25:08.647Z,101386.95
2018-09-03T05:27:39.639Z,101385.01
2018-09-03T05:30:21.784Z,101381.78
2018-09-03T05:32:51.957Z,101373.32
2018-09-03T05:35:36.530Z,101372.36
2018-09-03T05:38:09.337Z,101360.42
2018-09-03T05:40:38.688Z,101362.29
2018-09-03T05:43:08.154Z,101360.82
2018-09-03T05:45:37.593Z,101361.41
2018-09-03T05:48:09.198Z,101363.90
2018-09-03T05:50:39.391Z,101367.91
2018-09-03T05:53:24.110Z,101377.73
2018-09-03T05:55:55.806Z,101368.82
2018-09-03T05:58:28.058Z,101370.44
2018-09-03T06:01:06.330Z,101368.75
2018-09-03T06:03:37.484Z,101371.84
2018-09-03T06:06:13.085Z,101366.38
2018-09-03T06:08:44.552Z,101367.36
2018-09-03T06:11:17.613Z,101369.23
2018-09-03T06:13:50.161Z,101365.45
2018-09-03T06:16:21.373Z,101367.36
2018-09-03T06:18:55.663Z,101358.87
2018-09-03T06:21:31.444Z,101301.78
2018-09-03T06:24:03.536Z,101347.59
2018-09-03T06:26:33.541Z,101354.80
2018-09-03T06:29:03.792Z,101354.35
2018-09-03T06:31:46.935Z,101346.59
2018-09-03T06:34:18.819Z,101345.44
2018-09-03T06:36:48.249Z,101349.65
2018-09-03T06:39:25.953Z,101346.94
2018-09-03T06:42:07.799Z,101351.06
2018-09-03T06:47:29.226Z,101354.07
2018-09-03T06:49:59.191Z,101353.94
2018-09-03T06:52:30.162Z,101353.25
2018-09-03T06:55:03.603Z,101356.59
2018-09-03T06:57:35.592Z,101360.75
2018-09-03T07:00:21.492Z,101355.52
2018-09-03T07:02:55.414Z,101348.87
2018-09-03T07:05:25.613Z,101339.39
2018-09-03T07:07:55.280Z,101345.94
2018-09-03T07:10:26.629Z,101344.14
2018-09-03T07:12:57.643Z,101339.39
2018-09-03T07:21:09.861Z,101340.86
2018-09-03T07:23:51.315Z,101342.86
2018-09-03T07:26:23.979Z,101348.92
2018-09-03T07:28:55.729Z,101349.76
2018-09-03T07:31:27.162Z,101343.70
2018-09-03T07:33:58.275Z,101332.87
2018-09-03T07:36:27.734Z,101337.89
2018-09-03T07:39:04.186Z,101331.26
2018-09-03T07:41:34.725Z,101332.80
2018-09-03T07:44:06.094Z,101337.27
2018-09-03T07:46:37.231Z,101330.48
2018-09-03T07:49:19.958Z,101338.08
2018-09-03T07:51:50.449Z,101338.91
2018-09-03T07:54:24.702Z,101336.09
2018-09-03T07:56:56.816Z,101339.50
2018-09-03T07:59:26.133Z,101345.14
2018-09-03T08:01:55.448Z,101350.23
2018-09-03T08:04:25.515Z,101350.60
2018-09-03T08:06:56.578Z,101355.75
2018-09-03T08:09:29.373Z,101358.97
2018-09-03T08:11:59.798Z,101363.77
2018-09-03T08:14:31.409Z,101355.48
2018-09-03T08:17:05.503Z,101358.38
2018-09-03T08:19:41.506Z,101360.19
2018-09-03T08:22:18.114Z,101364.31
2018-09-03T08:24:48.332Z,101372.91
2018-09-03T08:27:18.512Z,101365.59
2018-09-03T08:29:58.179Z,101358.72
2018-09-03T08:32:28.473Z,101356.14
2018-09-03T08:35:03.655Z,101357.77
2018-09-03T08:37:38.319Z,101353.95
2018-09-03T08:40:11.231Z,101349.83
2018-09-03T08:42:43.307Z,101345.05
2018-09-03T08:45:20.535Z,101348.55
2018-09-03T08:47:50.539Z,101356.87
2018-09-03T08:50:22.562Z,101354.98
2018-09-03T08:52:54.977Z,101351.39
2018-09-03T08:55:28.475Z,101346.23
2018-09-03T08:58:14.588Z,101347.45
2018-09-03T09:00:48.923Z,101356.24
2018-09-03T09:03:24.511Z,101357.71
2018-09-03T09:05:56.557Z,101353.53
2018-09-03T09:08:29.200Z,101358.80
2018-09-03T09:11:00.131Z,101359.98
2018-09-03T09:13:37.489Z,101355.66
2018-09-03T09:16:08.109Z,101354.34
2018-09-03T09:18:38.943Z,101348.47
2018-09-03T09:21:08.875Z,101342.78
2018-09-03T09:23:42.620Z,101339.48
2018-09-03T09:26:14.069Z,101343.69
2018-09-03T09:28:47.845Z,101351.63
2018-09-03T09:31:18.223Z,101351.49
2018-09-03T09:33:59.943Z,101349.92
2018-09-03T09:36:32.166Z,101343.05
2018-09-03T09:39:15.687Z,101350.41
2018-09-03T09:41:51.234Z,101352.83
2018-09-03T09:44:20.920Z,101344.60
2018-09-03T09:46:50.294Z,101346.91
2018-09-03T09:49:22.402Z,101343.05
2018-09-03T10:30:58.369Z,101300.55
2018-09-03T10:33:33.265Z,101292.27
2018-09-03T10:36:04.487Z,101293.39
2018-09-03T10:38:38.377Z,101293.22
2018-09-03T10:41:09.605Z,101286.09
2018-09-03T10:43:41.348Z,101281.50
2018-09-03T10:46:17.023Z,101279.48
2018-09-03T10:48:46.654Z,101279.61
2018-09-03T10:51:25.256Z,101277.93
2018-09-03T10:53:57.040Z,101270.72
2018-09-03T10:56:33.575Z,101276.36
2018-09-03T10:59:03.853Z,101277.11
2018-09-03T11:01:35.370Z,101271.00
2018-09-03T11:04:07.892Z,101271.91
2018-09-03T11:06:44.370Z,101268.03
2018-09-03T11:09:14.580Z,101264.78
2018-09-03T11:14:39.139Z,101264.95
2018-09-03T11:17:10.887Z,101268.45
2018-09-03T11:20:04.332Z,101266.77
2018-09-03T11:22:35.249Z,101269.81
2018-09-03T11:25:10.012Z,101263.73
2018-09-03T11:27:40.260Z,101266.77
2018-09-03T11:30:15.387Z,101262.52
2018-09-03T11:32:54.484Z,101255.95
2018-09-03T11:35:24.716Z,101258.11
2018-09-03T11:37:54.344Z,101255.69
2018-09-03T11:40:27.474Z,101256.31
2018-09-03T11:42:56.797Z,101251.80
2018-09-03T11:45:27.302Z,101245.28
2018-09-03T11:48:08.074Z,101247.91
2018-09-03T11:50:38.360Z,101244.42
2018-09-03T11:53:08.717Z,101238.50
2018-09-03T11:55:44.725Z,101240.31
2018-09-03T11:58:16.466Z,101246.20
2018-09-03T12:00:47.692Z,101249.93
2018-09-03T12:03:18.848Z,101239.59
2018-09-03T12:05:49.605Z,101243.27
2018-09-03T12:08:26.619Z,101207.35
2018-09-03T12:10:57.060Z,101239.41
2018-09-03T12:13:26.798Z,101240.86
2018-09-03T12:16:33.128Z,101241.78
2018-09-03T12:19:06.929Z,101245.45
2018-09-03T12:21:36.646Z,101242.88
2018-09-03T12:24:07.009Z,101243.56
2018-09-03T12:26:39.158Z,101246.52
2018-09-03T12:29:10.587Z,101246.73
2018-09-03T12:31:47.261Z,101237.19
2018-09-03T12:34:25.200Z,101235.58
2018-09-03T12:36:56.333Z,101236.02
2018-09-03T12:39:25.830Z,101228.00
2018-09-03T12:41:58.844Z,101223.89
2018-09-03T12:44:31.063Z,101227.09
2018-09-03T12:47:00.671Z,101217.31
2018-09-03T12:49:43.204Z,101220.44
2018-09-03T12:52:14.004Z,101219.50
2018-09-03T12:54:44.454Z,101220.93
2018-09-03T12:57:21.398Z,101218.78
2018-09-03T12:59:51.100Z,101213.94
2018-09-03T13:02:22.652Z,101207.94
2018-09-03T13:04:52.467Z,101212.44
2018-09-03T13:07:26.526Z,101214.28
2018-09-03T13:09:56.450Z,101214.70
2018-09-03T13:12:27.631Z,101218.96
2018-09-03T13:15:00.256Z,101218.23
2018-09-03T13:17:29.811Z,101218.73
2018-09-03T13:20:01.334Z,101214.63
2018-09-03T13:22:31.302Z,101212.59
2018-09-03T13:25:02.085Z,101218.57
2018-09-03T13:27:32.877Z,101217.48
2018-09-03T13:30:08.011Z,101216.43
2018-09-03T13:32:38.904Z,101211.19
2018-09-03T13:35:11.632Z,101208.30
2018-09-03T13:37:42.316Z,101202.24
2018-09-03T13:40:13.820Z,101201.32
2018-09-03T13:42:45.154Z,101197.48
2018-09-03T13:45:17.459Z,101198.31
2018-09-03T13:47:48.763Z,101193.96
2018-09-03T13:50:20.802Z,101191.89
2018-09-03T13:52:56.430Z,101189.14
2018-09-03T13:58:12.304Z,101186.48
2018-09-03T14:00:43.507Z,101189.03
2018-09-03T14:03:22.711Z,101187.66
2018-09-03T14:05:56.205Z,101196.81
2018-09-03T14:08:35.411Z,101196.92
2018-09-03T14:11:06.499Z,101199.56
2018-09-03T14:13:36.816Z,101189.49
2018-09-03T14:16:08.742Z,101187.73
2018-09-03T14:18:39.848Z,101189.80
2018-09-03T14:21:11.008Z,101197.80
2018-09-03T14:23:42.951Z,101184.42
2018-09-03T14:26:14.759Z,101181.56
2018-09-03T14:28:51.606Z,101183.25
2018-09-03T14:31:29.034Z,101182.64
2018-09-03T14:33:59.677Z,101181.52
2018-09-03T14:36:35.468Z,101179.52
2018-09-03T14:39:09.484Z,101175.55
2018-09-03T14:41:39.607Z,101182.84
2018-09-03T14:44:19.594Z,101183.09
2018-09-03T14:46:53.266Z,101179.80
2018-09-03T14:52:04.360Z,101176.58
2018-09-03T14:54:38.594Z,101183.97
2018-09-03T14:57:10.991Z,101179.20
2018-09-03T14:59:41.230Z,101177.35
2018-09-03T15:02:32.546Z,101178.69
2018-09-03T15:05:05.994Z,101183.12
2018-09-03T15:07:35.338Z,101179.37
2018-09-03T15:10:07.138Z,101179.63
2018-09-03T15:12:43.263Z,101179.06
2018-09-03T15:15:20.232Z,101171.77
2018-09-03T15:17:50.371Z,101180.39
2018-09-03T15:20:36.875Z,101176.83
2018-09-03T15:23:06.969Z,101178.09
2018-09-03T15:25:41.717Z,101176.96
2018-09-03T15:28:17.501Z,101171.22
2018-09-03T15:30:52.185Z,101174.28
2018-09-03T15:33:23.032Z,101174.43
2018-09-03T15:35:53.371Z,101173.42
2018-09-03T15:40:58.569Z,101170.70
2018-09-03T15:47:45.756Z,101174.07
2018-09-03T15:50:15.543Z,101174.31
2018-09-03T15:52:47.348Z,101169.39
2018-09-03T15:55:18.414Z,101174.07
2018-09-03T15:57:51.622Z,101173.13
2018-09-03T16:00:21.620Z,101176.83
2018-09-03T16:02:52.895Z,101178.54
2018-09-03T16:05:24.167Z,101138.87
2018-09-03T16:07:57.757Z,101182.73
2018-09-03T16:10:29.443Z,101179.30
2018-09-03T16:13:03.023Z,101177.94
2018-09-03T16:15:35.575Z,101173.93
2018-09-03T16:18:05.904Z,101176.32
2018-09-03T16:20:36.390Z,101176.09
2018-09-03T16:23:06.040Z,101178.70
2018-09-03T16:25:57.777Z,101175.80
2018-09-03T16:28:40.379Z,101166.45
2018-09-03T16:31:13.633Z,101169.25
2018-09-03T16:33:43.646Z,101163.80
2018-09-03T16:36:20.466Z,101166.59
2018-09-03T16:38:51.975Z,101162.86
2018-09-03T16:41:25.712Z,101171.73
2018-09-03T16:43:57.951Z,101170.48
2018-09-03T16:46:31.138Z,101170.77
2018-09-03T16:49:05.004Z,101172.97
2018-09-03T16:51:36.065Z,101169.82
2018-09-03T16:54:10.314Z,101180.38
2018-09-03T16:59:06.053Z,101173.05
2018-09-03T17:01:41.256Z,101175.25
2018-09-03T17:04:11.730Z,101175.95
2018-09-03T17:06:44.328Z,101172.28
2018-09-03T17:09:16.452Z,101176.89
2018-09-03T17:11:53.561Z,101174.81
2018-09-03T17:14:31.479Z,101170.66
2018-09-03T17:17:03.589Z,101170.14
2018-09-03T17:22:41.313Z,101170.22
2018-09-03T17:25:23.741Z,101086.48
2018-09-03T17:27:59.322Z,101162.30
2018-09-03T17:30:35.228Z,101170.86
2018-09-03T17:33:08.599Z,101171.80
2018-09-03T17:35:46.728Z,101173.27
2018-09-03T17:38:18.623Z,101178.30
2018-09-03T17:40:49.236Z,101178.30
2018-09-03T17:43:23.440Z,101184.80
2018-09-03T17:45:53.525Z,101175.20
2018-09-03T17:48:26.606Z,101178.16
2018-09-03T17:50:58.922Z,101181.05
2018-09-03T17:53:37.607Z,101182.12
2018-09-03T17:56:13.344Z,101180.13
2018-09-03T17:58:44.600Z,101189.05
2018-09-03T18:01:18.122Z,101178.28
2018-09-03T18:03:49.159Z,101179.52
2018-09-03T18:09:23.233Z,101178.56
2018-09-03T18:11:58.923Z,101171.52
2018-09-03T18:14:31.615Z,101170.29
2018-09-03T18:17:06.296Z,101166.45
2018-09-03T18:19:48.325Z,101164.77
2018-09-03T18:22:32.821Z,101162.77
2018-09-03T18:25:06.259Z,101162.37
2018-09-03T18:27:36.896Z,101168.25
2018-09-03T18:30:13.680Z,101161.97
2018-09-03T18:32:43.669Z,101171.45
2018-09-03T18:35:24.759Z,101169.61
2018-09-03T18:38:01.047Z,101175.01
2018-09-03T18:40:32.989Z,101172.29
2018-09-03T18:43:19.331Z,101176.69
2018-09-03T18:45:54.546Z,101179.61
2018-09-03T18:48:25.337Z,101183.37
2018-09-03T18:51:05.141Z,101182.33
2018-09-03T18:53:38.733Z,101180.45
2018-09-03T18:56:11.212Z,101180.05
2018-09-03T19:01:37.682Z,101173.52
2018-09-03T19:04:15.489Z,101180.00
2018-09-03T19:06:45.980Z,101192.89
2018-09-03T19:09:20.999Z,101196.48
2018-09-03T19:11:52.019Z,101192.69
2018-09-03T19:17:08.636Z,101199.48
2018-09-03T19:19:46.705Z,101190.60
2018-09-03T19:22:18.146Z,101196.00
2018-09-03T19:25:02.279Z,101197.59
2018-09-03T19:27:35.694Z,101202.40
2018-09-03T19:30:23.479Z,101197.80
2018-09-03T19:33:00.257Z,101196.70
2018-09-03T19:35:31.337Z,101189.70
2018-09-03T19:38:03.211Z,101182.66
2018-09-03T19:40:33.434Z,101186.97
2018-09-03T19:43:06.374Z,101189.80
2018-09-03T19:45:38.800Z,101187.39
2018-09-03T19:48:13.672Z,101182.55
2018-09-03T19:50:46.037Z,101182.33
2018-09-03T19:53:19.063Z,101178.95
2018-09-03T19:56:02.479Z,101170.34
2018-09-03T19:58:47.652Z,101167.34
2018-09-03T20:01:22.156Z,101160.89
2018-09-03T20:03:56.110Z,101159.44
2018-09-03T20:06:27.578Z,101157.88
2018-09-03T20:08:58.294Z,101155.37
2018-09-03T20:11:31.883Z,101168.14
2018-09-03T20:16:59.607Z,101170.16
2018-09-03T20:22:22.431Z,101171.31
2018-09-03T20:24:52.427Z,101172.55
2018-09-03T20:27:24.387Z,101176.23
2018-09-03T20:29:56.647Z,101174.95
2018-09-03T20:32:31.768Z,101073.73
2018-09-03T20:35:12.427Z,101171.89
2018-09-03T20:37:53.267Z,101171.38
2018-09-03T20:40:27.663Z,101173.30
2018-09-03T20:43:05.029Z,101173.39
2018-09-03T20:45:36.403Z,101172.08
2018-09-03T20:48:08.699Z,101171.12
2018-09-03T20:50:45.656Z,101164.76
2018-09-03T20:53:15.900Z,101169.95
2018-09-03T20:55:50.067Z,101172.55
2018-09-03T20:58:19.539Z,101176.11
2018-09-03T21:00:51.082Z,101168.27
2018-09-03T21:03:21.695Z,101162.95
2018-09-03T21:05:53.501Z,101160.44
2018-09-03T21:08:24.594Z,101159.59
2018-09-03T21:10:57.757Z,101154.67
2018-09-03T21:13:28.220Z,101164.64
2018-09-03T21:16:00.689Z,101156.17
2018-09-03T21:18:32.800Z,101161.12
2018-09-03T21:21:02.427Z,101159.77
2018-09-03T21:23:33.508Z,101162.92
2018-09-03T21:26:10.422Z,101155.69
2018-09-03T21:28:42.516Z,101163.77
2018-09-03T21:31:13.087Z,101157.28
2018-09-03T21:33:43.339Z,101160.48
2018-09-03T21:36:13.103Z,101164.36
2018-09-03T21:38:43.184Z,101166.96
2018-09-03T21:41:13.861Z,101169.91
2018-09-03T21:43:44.205Z,101165.09
2018-09-03T21:46:15.147Z,101164.77
2018-09-03T21:48:45.523Z,101166.14
2018-09-03T21:51:20.643Z,101168.95
2018-09-03T21:53:50.339Z,101173.75
2018-09-03T21:56:21.343Z,101172.80
2018-09-03T21:58:51.189Z,101169.67
2018-09-03T22:01:22.252Z,101177.53
2018-09-03T22:03:52.556Z,101175.42
2018-09-03T22:06:24.966Z,101172.92
2018-09-03T22:08:54.551Z,101175.11
2018-09-03T22:11:24.397Z,101172.92
2018-09-03T22:13:53.954Z,101166.73
2018-09-03T22:16:28.705Z,101169.03
2018-09-03T22:18:58.461Z,101167.97
2018-09-03T22:21:31.062Z,101168.83
2018-09-03T22:24:04.567Z,101167.16
2018-09-03T22:26:35.046Z,101172.92
2018-09-03T22:29:04.604Z,101166.95
2018-09-03T22:31:36.308Z,101078.05
2018-09-03T22:34:09.561Z,101171.13
2018-09-03T22:36:39.800Z,101166.72
2018-09-03T22:39:10.430Z,101168.16
2018-09-03T22:41:40.174Z,101167.19
2018-09-03T22:44:12.707Z,101164.03
2018-09-03T22:46:45.348Z,101164.80
2018-09-03T22:49:14.962Z,101167.64
2018-09-03T22:51:44.361Z,101173.77
2018-09-03T22:54:16.373Z,101167.59
2018-09-03T22:56:45.918Z,101162.60
2018-09-03T22:59:15.149Z,101167.12
2018-09-03T23:01:45.489Z,101158.97
2018-09-03T23:04:16.373Z,101153.81
2018-09-03T23:06:46.131Z,101154.59
2018-09-03T23:09:15.887Z,101156.09
2018-09-03T23:11:45.359Z,101156.92
2018-09-03T23:14:14.718Z,101155.25
2018-09-03T23:16:44.867Z,101101.70
2018-09-03T23:19:16.070Z,101152.63
2018-09-03T23:21:47.542Z,101157.09
2018-09-03T23:24:18.712Z,101151.22
2018-09-03T23:26:49.653Z,101156.55
2018-09-03T23:29:20.600Z,101149.22
2018-09-03T23:31:50.321Z,101147.21
2018-09-03T23:34:19.683Z,101147.83
2018-09-03T23:36:49.064Z,101140.10
2018-09-03T23:39:18.651Z,101143.98
2018-09-03T23:41:48.701Z,101137.58
2018-09-03T23:44:19.627Z,101145.69
2018-09-03T23:46:49.462Z,101138.91
2018-09-03T23:49:19.652Z,101141.80
2018-09-03T23:51:49.386Z,101139.51
2018-09-03T23:54:18.971Z,101145.64
2018-09-03T23:56:49.597Z,101149.28
2018-09-03T23:59:20.668Z,101140.14
